Bowie, TX (76230)

11:46 AM CST on February 01, 2015 (GMT -0600)
North Bowie | Change Station
CLOSE
Current Station
Personal Weather Station
Location: Bowie, TX
Elevation: 1112 ft
Nearby Weather Stations

Elev 1112 ft 33.56 °N, 97.83 °W | Updated 5 seconds ago

Partly Cloudy
Partly Cloudy
47.2 °F
Feels Like 42 °F
N
11.2
Wind Variable Wind from North
Gusts 17.7 mph

Today
High -- | Low -- °F
--% Chance of Precip.
Yesterday
High -- | Low -- °F
Precip. -- in
7:27 AM 6:02 PM
Waxing Gibbous, 95% visible
Pressure 30.05 in
Visibility 10.0 miles
Clouds Mostly Cloudy 2300 ft
Windchill 42 °F
Dew Point 38 °F
Humidity 71%
Rainfall 0.04 in
Snow Depth Not available.
UV 2 out of 12
Pollen 5.00 out of 12
Air Quality Not available.
Flu Activity Not available.
METAR K0F2 011730Z AUTO 33018G22KT 10SM BKN023 08/03 A3005 RMK AO2 T00790032

More Conditions Fewer Conditions

Pressure 30.05 in
Visibility 10.0 miles
Clouds Mostly Cloudy 2300 ft
Windchill 42 °F
Dew Point 38 °F
Humidity 71%
Rainfall 0.04 in
Snow Depth Not available.
UV 2 out of 12
Pollen 5.00 out of 12
Air Quality Not available.
Flu Activity Not available.
METAR K0F2 011730Z AUTO 33018G22KT 10SM BKN023 08/03 A3005 RMK AO2 T00790032

More Conditions Fewer Conditions

10-Day Weather Forecast

Almanac

Astronomy

Feb. 01, 2015 Rise Set
Actual Time
Civil Twilight
Nautical Twilight
Astronomical Twilight
Moon
Length of Visible Light
Length of Day
Tomorrow will be .
, % of the Moon is Illuminated

Today's Extremes

State Highs State Lows

Community

WunderPhotos

Upload Photos

1,792,408 photos uploaded!

WunderBlogs® & News

Nearby

Air Quality

  Air Quality AQ Index Pollutant
Not available.

Snow Depth

Station Depth Elevation

Earthquake Activity

City Distance Mag. Time & Date
Minimum magnitude displayed is 2.5.

Coastal Water Temperatures

Place Temperature

Nearby Weather Stations